Accueil
METAR-TAF:

METAR-TAF

Aéroports :

Aéroport de Milan Malpensa

Milan, Italie

latitude: 45-37N, longitude: 008-44E, altitude: 234 m

Observation

Le bulletin a été fait il y a 16 minutes, à 01:50 UTC
Vent 5 kt de nord
Température 5°C
Humidité 93%
Pression 1018 hPa
Visibilité: 6000 m
Nuages fragmentés à une hauteur de 5000 ft

METAR: LIMC 030150Z 01005KT 6000 BKN050 05/04 Q1018 NOSIG

Heure: 03:06 (02:06 UTC)

Prévision

Le bulletin a été fait il y a 3 heures et 6 minutes, à 23:00 UTC
Prévision valable du 03 à 00 UTC au 04 à 06 UTC
Vent 4 kt de nord
Visibilité: 7000 m
Nuages épars à une hauteur de 1500 ft
Nuages fragmentés à une hauteur de 5000 ft
Temporairement
du 03 à 00 UTC au 03 à 06 UTC
Visibilité: 4000 m
bruine, brume
Evoluant progressivement
du 03 à 06 UTC au 03 à 08 UTC
Visibilité: 3000 m
pluie, brume

TAF: LIMC 022300Z 0300/0406 01004KT 7000 SCT015 BKN050 TEMPO 0300/0306 4000 DZ BR BECMG 0306/0308 3000 RA BR

Observations et prévisions météorologiques de plus de 4000 aéroports (messages METAR et TAF).

Les stations disponibles sont représentées par des disques jaunes et rouges sur la carte.

Passer la souris dessus pour voir le nom de la station.

Cliquer dessus pour voir les observations et prévisions météorologiques.

Pour changer de carte: cliquez sur les boutons verts avec une croix noire pour zoomer, sur le bouton vert avec un tiret pour effectuer un zoom arrière, ou sur les flèches vertes pour les cartes adjacentes.


METAR-TAF: